DAL820 KDCA-KSLC
Flight info
| Callsign | DAL820 |
|---|---|
| Flight time | 4h 16m |
| Altitude | 32000 |
| Route | WYNGS5 RAMAY Q72 HACKS J149 FWA CADIZ QUIZZ DSM KP69C KUTCH CKW CARTR1 |
| Aircraft | A21N/M-SDE2E3FGHIRWXY/LB1 |
Departure
| Time | 2026-05-04 21:17 |
|---|---|
| Airport | Ronald Reagan Washington National Airport (KDCA) |
Arrival
| Time | 2026-05-05 01:33 |
|---|---|
| Airport | Salt Lake City International Airport (KSLC) |
| Time | Latitude | Longitude | Altitude | Speed | Heading |
|---|---|---|---|---|---|
| 2026-05-04 20:21 | 38.85252 | -77.04160 | 30 ft | 0 kts | 162° |
| 2026-05-04 21:08 | 38.85268 | -77.04167 | 29 ft | 4 kts | 162° |
| 2026-05-04 21:08 | 38.85288 | -77.04175 | 29 ft | 4 kts | 149° |
| 2026-05-04 21:08 | 38.85295 | -77.04190 | 29 ft | 3 kts | 73° |
| 2026-05-04 21:08 | 38.85290 | -77.04213 | 29 ft | 0 kts | 72° |
| 2026-05-04 21:11 | 38.85291 | -77.04210 | 29 ft | 2 kts | 72° |
| 2026-05-04 21:11 | 38.85298 | -77.04179 | 29 ft | 5 kts | 72° |
| 2026-05-04 21:12 | 38.85310 | -77.04133 | 29 ft | 6 kts | 72° |
| 2026-05-04 21:12 | 38.85324 | -77.04075 | 29 ft | 8 kts | 72° |
| 2026-05-04 21:12 | 38.85338 | -77.04003 | 29 ft | 9 kts | 90° |
| 2026-05-04 21:12 | 38.85380 | -77.03947 | 29 ft | 11 kts | 8° |
| 2026-05-04 21:13 | 38.85471 | -77.03948 | 30 ft | 14 kts | 358° |
| 2026-05-04 21:13 | 38.85574 | -77.03957 | 30 ft | 16 kts | 353° |
| 2026-05-04 21:13 | 38.85686 | -77.03971 | 31 ft | 17 kts | 356° |
| 2026-05-04 21:13 | 38.85806 | -77.03982 | 31 ft | 14 kts | 355° |
| 2026-05-04 21:14 | 38.85893 | -77.03989 | 30 ft | 8 kts | 359° |
| 2026-05-04 21:14 | 38.85951 | -77.03977 | 30 ft | 9 kts | 17° |
| 2026-05-04 21:14 | 38.85996 | -77.03958 | 30 ft | 0 kts | 18° |
| 2026-05-04 21:15 | 38.85998 | -77.03958 | 30 ft | 1 kts | 18° |
| 2026-05-04 21:15 | 38.86071 | -77.03922 | 29 ft | 15 kts | 35° |
| 2026-05-04 21:16 | 38.86075 | -77.03872 | 29 ft | 6 kts | 161° |
| 2026-05-04 21:16 | 38.86059 | -77.03869 | 29 ft | 0 kts | 174° |
| 2026-05-04 21:16 | 38.86044 | -77.03867 | 29 ft | 19 kts | 175° |
| 2026-05-04 21:17 | 38.85593 | -77.03821 | 30 ft | 110 kts | 175° |
| 2026-05-04 21:17 | 38.84586 | -77.03724 | 442 ft | 156 kts | 176° |
| 2026-05-04 21:17 | 38.83469 | -77.03639 | 1596 ft | 167 kts | 183° |
| 2026-05-04 21:17 | 38.82260 | -77.03727 | 2450 ft | 184 kts | 185° |
| 2026-05-04 21:18 | 38.80938 | -77.03636 | 2969 ft | 196 kts | 176° |
| 2026-05-04 21:18 | 38.79550 | -77.03519 | 3504 ft | 203 kts | 182° |
| 2026-05-04 21:18 | 38.78096 | -77.03618 | 3931 ft | 221 kts | 186° |
| 2026-05-04 21:18 | 38.76558 | -77.04165 | 4182 ft | 243 kts | 212° |
| 2026-05-04 21:19 | 38.75317 | -77.05693 | 4739 ft | 253 kts | 236° |
| 2026-05-04 21:19 | 38.74653 | -77.07777 | 5555 ft | 257 kts | 260° |
| 2026-05-04 21:19 | 38.74507 | -77.10059 | 6444 ft | 256 kts | 265° |
| 2026-05-04 21:19 | 38.74406 | -77.12345 | 7264 ft | 257 kts | 266° |
| 2026-05-04 21:20 | 38.74317 | -77.14631 | 8083 ft | 258 kts | 266° |
| 2026-05-04 21:20 | 38.74210 | -77.16926 | 8897 ft | 258 kts | 266° |
| 2026-05-04 21:20 | 38.74080 | -77.19220 | 9711 ft | 259 kts | 266° |
| 2026-05-04 21:20 | 38.73931 | -77.21568 | 10195 ft | 272 kts | 266° |
| 2026-05-04 21:21 | 38.73838 | -77.24070 | 10444 ft | 291 kts | 273° |
| 2026-05-04 21:21 | 38.74374 | -77.26640 | 10722 ft | 310 kts | 294° |
| 2026-05-04 21:21 | 38.75509 | -77.29090 | 10960 ft | 330 kts | 300° |
| 2026-05-04 21:21 | 38.76778 | -77.31634 | 11188 ft | 347 kts | 300° |
| 2026-05-04 21:22 | 38.78088 | -77.34313 | 11418 ft | 363 kts | 300° |
| 2026-05-04 21:22 | 38.79446 | -77.37122 | 11714 ft | 375 kts | 300° |
| 2026-05-04 21:22 | 38.80823 | -77.39980 | 12196 ft | 379 kts | 300° |
| 2026-05-04 21:22 | 38.82221 | -77.42858 | 12731 ft | 381 kts | 300° |
| 2026-05-04 21:23 | 38.83618 | -77.45752 | 13302 ft | 383 kts | 299° |
| 2026-05-04 21:23 | 38.85021 | -77.48672 | 13874 ft | 385 kts | 299° |
| 2026-05-04 21:23 | 38.86429 | -77.51615 | 14328 ft | 388 kts | 299° |
| 2026-05-04 21:23 | 38.87847 | -77.54582 | 14795 ft | 392 kts | 299° |
| 2026-05-04 21:24 | 38.89280 | -77.57584 | 15309 ft | 396 kts | 299° |
| 2026-05-04 21:24 | 38.90726 | -77.60615 | 15841 ft | 400 kts | 299° |
| 2026-05-04 21:24 | 38.92181 | -77.63674 | 16374 ft | 403 kts | 299° |
| 2026-05-04 21:24 | 38.93482 | -77.66861 | 16837 ft | 405 kts | 291° |
| 2026-05-04 21:25 | 38.94268 | -77.70340 | 17282 ft | 408 kts | 279° |
| 2026-05-04 21:25 | 38.94518 | -77.73976 | 17744 ft | 411 kts | 272° |
| 2026-05-04 21:25 | 38.94625 | -77.77614 | 18188 ft | 415 kts | 271° |
| 2026-05-04 21:25 | 38.94722 | -77.81329 | 18564 ft | 418 kts | 272° |
| 2026-05-04 21:26 | 38.94837 | -77.85074 | 18965 ft | 421 kts | 272° |
| 2026-05-04 21:26 | 38.94963 | -77.88835 | 19397 ft | 423 kts | 272° |
| 2026-05-04 21:26 | 38.95090 | -77.92623 | 19819 ft | 425 kts | 272° |
| 2026-05-04 21:26 | 38.95217 | -77.96426 | 20261 ft | 426 kts | 272° |
| 2026-05-04 21:27 | 38.95341 | -78.00230 | 20715 ft | 428 kts | 272° |
| 2026-05-04 21:27 | 38.95466 | -78.04063 | 21165 ft | 431 kts | 272° |
| 2026-05-04 21:27 | 38.95590 | -78.07921 | 21666 ft | 433 kts | 273° |
| 2026-05-04 21:27 | 38.95718 | -78.11800 | 22128 ft | 435 kts | 273° |
| 2026-05-04 21:28 | 38.95850 | -78.15699 | 22526 ft | 438 kts | 273° |
| 2026-05-04 21:28 | 38.95976 | -78.19616 | 22911 ft | 440 kts | 273° |
| 2026-05-04 21:28 | 38.96167 | -78.23546 | 23292 ft | 442 kts | 275° |
| 2026-05-04 21:28 | 38.96417 | -78.27483 | 23683 ft | 443 kts | 275° |
| 2026-05-04 21:29 | 38.96670 | -78.31419 | 24165 ft | 440 kts | 275° |
| 2026-05-04 21:29 | 38.96923 | -78.35329 | 24666 ft | 437 kts | 275° |
| 2026-05-04 21:29 | 38.97175 | -78.39204 | 25158 ft | 435 kts | 275° |
| 2026-05-04 21:29 | 38.97431 | -78.43069 | 25642 ft | 432 kts | 275° |
| 2026-05-04 21:30 | 38.97681 | -78.46901 | 26136 ft | 430 kts | 275° |
| 2026-05-04 21:30 | 38.97921 | -78.50718 | 26612 ft | 427 kts | 275° |
| 2026-05-04 21:30 | 38.98159 | -78.54520 | 27116 ft | 425 kts | 275° |
| 2026-05-04 21:30 | 38.98393 | -78.58286 | 27615 ft | 422 kts | 275° |
| 2026-05-04 21:31 | 38.98861 | -78.65768 | 28608 ft | 417 kts | 275° |
| 2026-05-04 21:31 | 38.99095 | -78.69480 | 29086 ft | 415 kts | 275° |
| 2026-05-04 21:31 | 38.99324 | -78.73167 | 29577 ft | 412 kts | 275° |
| 2026-05-04 21:32 | 38.99547 | -78.76828 | 29999 ft | 410 kts | 275° |
| 2026-05-04 21:32 | 38.99768 | -78.80484 | 30292 ft | 411 kts | 275° |
| 2026-05-04 21:32 | 38.99991 | -78.84144 | 30555 ft | 411 kts | 275° |
| 2026-05-04 21:32 | 39.00211 | -78.87820 | 30820 ft | 412 kts | 275° |
| 2026-05-04 21:33 | 39.00426 | -78.91487 | 31087 ft | 412 kts | 275° |
| 2026-05-04 21:33 | 39.00644 | -78.95170 | 31338 ft | 413 kts | 275° |
| 2026-05-04 21:33 | 39.00864 | -78.98855 | 31558 ft | 413 kts | 275° |
| 2026-05-04 21:33 | 39.01082 | -79.02540 | 31790 ft | 414 kts | 275° |
| 2026-05-04 21:34 | 39.01296 | -79.06237 | 31925 ft | 416 kts | 275° |
| 2026-05-04 21:34 | 39.01723 | -79.13632 | 31917 ft | 414 kts | 275° |
| 2026-05-04 21:35 | 39.02164 | -79.21014 | 31901 ft | 414 kts | 276° |
| 2026-05-04 21:35 | 39.02659 | -79.28403 | 31907 ft | 415 kts | 276° |
| 2026-05-04 21:36 | 39.03139 | -79.35795 | 31911 ft | 414 kts | 276° |
| 2026-05-04 21:36 | 39.03613 | -79.43170 | 31908 ft | 414 kts | 276° |
| 2026-05-04 21:37 | 39.04086 | -79.50579 | 31913 ft | 416 kts | 276° |
| 2026-05-04 21:37 | 39.04555 | -79.57943 | 31918 ft | 416 kts | 275° |
| 2026-05-04 21:38 | 39.05023 | -79.65404 | 31916 ft | 416 kts | 275° |
| 2026-05-04 21:38 | 39.05484 | -79.72822 | 31930 ft | 416 kts | 275° |
| 2026-05-04 21:39 | 39.05934 | -79.80243 | 31935 ft | 416 kts | 275° |
| 2026-05-04 21:39 | 39.06383 | -79.87639 | 31929 ft | 414 kts | 275° |
| 2026-05-04 21:40 | 39.06825 | -79.94986 | 31925 ft | 414 kts | 275° |
| 2026-05-04 21:40 | 39.07261 | -80.02377 | 31913 ft | 414 kts | 275° |
| 2026-05-04 21:41 | 39.07691 | -80.09780 | 31891 ft | 414 kts | 275° |
| 2026-05-04 21:41 | 39.08125 | -80.17170 | 31881 ft | 414 kts | 275° |
| 2026-05-04 21:42 | 39.08551 | -80.24563 | 31884 ft | 414 kts | 275° |
| 2026-05-04 21:42 | 39.08965 | -80.31949 | 31878 ft | 414 kts | 275° |
| 2026-05-04 21:43 | 39.09367 | -80.39337 | 31878 ft | 414 kts | 275° |
| 2026-05-04 21:43 | 39.09762 | -80.46725 | 31873 ft | 414 kts | 275° |
| 2026-05-04 21:44 | 39.10150 | -80.54115 | 31872 ft | 414 kts | 275° |
| 2026-05-04 21:44 | 39.10510 | -80.61509 | 31875 ft | 414 kts | 275° |
| 2026-05-04 21:45 | 39.10900 | -80.68908 | 31867 ft | 414 kts | 275° |
| 2026-05-04 21:45 | 39.11269 | -80.76309 | 31877 ft | 414 kts | 275° |
| 2026-05-04 21:46 | 39.11660 | -80.83713 | 31875 ft | 414 kts | 275° |
| 2026-05-04 21:46 | 39.12024 | -80.91120 | 31873 ft | 414 kts | 275° |
| 2026-05-04 21:47 | 39.12379 | -80.98537 | 31874 ft | 415 kts | 275° |
| 2026-05-04 21:47 | 39.12773 | -81.05960 | 31875 ft | 415 kts | 278° |
| 2026-05-04 21:48 | 39.14411 | -81.13036 | 31880 ft | 415 kts | 296° |
| 2026-05-04 21:48 | 39.17121 | -81.19555 | 31880 ft | 415 kts | 297° |
| 2026-05-04 21:49 | 39.19852 | -81.26163 | 31875 ft | 415 kts | 297° |
| 2026-05-04 21:49 | 39.22101 | -81.31643 | 31878 ft | 416 kts | 297° |
| 2026-05-04 21:50 | 39.25241 | -81.39319 | 32182 ft | 417 kts | 297° |
| 2026-05-04 21:50 | 39.26151 | -81.41560 | 32350 ft | 417 kts | 297° |
| 2026-05-04 21:50 | 39.27941 | -81.45952 | 32583 ft | 419 kts | 297° |
| 2026-05-04 21:50 | 39.29299 | -81.49295 | 32717 ft | 421 kts | 297° |
| 2026-05-04 21:51 | 39.30221 | -81.51559 | 32836 ft | 422 kts | 297° |
| 2026-05-04 21:51 | 39.31584 | -81.54903 | 33035 ft | 422 kts | 297° |
| 2026-05-04 21:51 | 39.32950 | -81.58271 | 33253 ft | 422 kts | 297° |
| 2026-05-04 21:51 | 39.34315 | -81.61631 | 33468 ft | 422 kts | 297° |
| 2026-05-04 21:52 | 39.35661 | -81.64945 | 33676 ft | 422 kts | 297° |
| 2026-05-04 21:52 | 39.37482 | -81.69441 | 33874 ft | 423 kts | 297° |
| 2026-05-04 21:52 | 39.38399 | -81.71712 | 33897 ft | 423 kts | 297° |
| 2026-05-04 21:53 | 39.41092 | -81.78412 | 33877 ft | 422 kts | 296° |
| 2026-05-04 21:53 | 39.43802 | -81.85150 | 33864 ft | 422 kts | 296° |
| 2026-05-04 21:54 | 39.46528 | -81.91936 | 33862 ft | 422 kts | 296° |
| 2026-05-04 21:54 | 39.49214 | -81.98640 | 33854 ft | 422 kts | 296° |
| 2026-05-04 21:55 | 39.51911 | -82.05383 | 33853 ft | 422 kts | 296° |
| 2026-05-04 21:55 | 39.54607 | -82.12131 | 33853 ft | 424 kts | 296° |
| 2026-05-04 21:56 | 39.57322 | -82.18947 | 33846 ft | 426 kts | 296° |
| 2026-05-04 21:56 | 39.60029 | -82.25769 | 33842 ft | 426 kts | 296° |
| 2026-05-04 21:57 | 39.62731 | -82.32608 | 33840 ft | 426 kts | 296° |
| 2026-05-04 21:57 | 39.65437 | -82.39441 | 33844 ft | 426 kts | 296° |
| 2026-05-04 21:58 | 39.68147 | -82.46305 | 33839 ft | 427 kts | 296° |
| 2026-05-04 21:58 | 39.70848 | -82.53179 | 33840 ft | 428 kts | 296° |
| 2026-05-04 21:59 | 39.73541 | -82.60064 | 33839 ft | 428 kts | 296° |
| 2026-05-04 21:59 | 39.76245 | -82.66949 | 33841 ft | 428 kts | 296° |
| 2026-05-04 22:00 | 39.78925 | -82.73852 | 33836 ft | 428 kts | 296° |
| 2026-05-04 22:00 | 39.81599 | -82.80754 | 33829 ft | 428 kts | 296° |
| 2026-05-04 22:01 | 39.84303 | -82.87676 | 33824 ft | 428 kts | 296° |
| 2026-05-04 22:01 | 39.86994 | -82.94583 | 33821 ft | 429 kts | 296° |
| 2026-05-04 22:02 | 39.89687 | -83.01504 | 33812 ft | 427 kts | 296° |
| 2026-05-04 22:02 | 39.92365 | -83.08421 | 33812 ft | 428 kts | 296° |
| 2026-05-04 22:03 | 39.95042 | -83.15367 | 33810 ft | 428 kts | 296° |
| 2026-05-04 22:03 | 39.97709 | -83.22310 | 33813 ft | 429 kts | 296° |
| 2026-05-04 22:04 | 40.00377 | -83.29266 | 33813 ft | 429 kts | 296° |
| 2026-05-04 22:04 | 40.03037 | -83.36220 | 33808 ft | 429 kts | 296° |
| 2026-05-04 22:05 | 40.05699 | -83.43187 | 33807 ft | 429 kts | 295° |
| 2026-05-04 22:05 | 40.08346 | -83.50144 | 33811 ft | 426 kts | 296° |
| 2026-05-04 22:06 | 40.10957 | -83.57018 | 33802 ft | 425 kts | 296° |
| 2026-05-04 22:06 | 40.13580 | -83.63922 | 33788 ft | 422 kts | 296° |
| 2026-05-04 22:07 | 40.16192 | -83.70823 | 33784 ft | 426 kts | 296° |
| 2026-05-04 22:07 | 40.18809 | -83.77770 | 33777 ft | 424 kts | 295° |
| 2026-05-04 22:08 | 40.21416 | -83.84683 | 33771 ft | 422 kts | 295° |
| 2026-05-04 22:08 | 40.24013 | -83.91616 | 33751 ft | 423 kts | 295° |
| 2026-05-04 22:09 | 40.26586 | -83.98494 | 33755 ft | 422 kts | 295° |
| 2026-05-04 22:09 | 40.29372 | -84.05243 | 33755 ft | 423 kts | 304° |
| 2026-05-04 22:10 | 40.33033 | -84.11324 | 33753 ft | 427 kts | 307° |
| 2026-05-04 22:10 | 40.36762 | -84.17344 | 33736 ft | 424 kts | 307° |
| 2026-05-04 22:11 | 40.40473 | -84.23398 | 33731 ft | 426 kts | 307° |
| 2026-05-04 22:11 | 40.44175 | -84.29461 | 33732 ft | 425 kts | 307° |
| 2026-05-04 22:12 | 40.47861 | -84.35515 | 33735 ft | 425 kts | 307° |
| 2026-05-04 22:12 | 40.51527 | -84.41606 | 33736 ft | 425 kts | 307° |
| 2026-05-04 22:13 | 40.55199 | -84.47701 | 33722 ft | 425 kts | 307° |
| 2026-05-04 22:13 | 40.58910 | -84.53752 | 33727 ft | 425 kts | 307° |
| 2026-05-04 22:14 | 40.62608 | -84.59827 | 33716 ft | 424 kts | 307° |
| 2026-05-04 22:14 | 40.66280 | -84.65906 | 33719 ft | 425 kts | 307° |
| 2026-05-04 22:15 | 40.69959 | -84.72014 | 33719 ft | 424 kts | 306° |
| 2026-05-04 22:15 | 40.73632 | -84.78129 | 33716 ft | 424 kts | 307° |
| 2026-05-04 22:16 | 40.77296 | -84.84246 | 33712 ft | 425 kts | 307° |
| 2026-05-04 22:16 | 40.80961 | -84.90361 | 33708 ft | 426 kts | 306° |
| 2026-05-04 22:17 | 40.84631 | -84.96511 | 33700 ft | 427 kts | 306° |
| 2026-05-04 22:17 | 40.88305 | -85.02672 | 33698 ft | 426 kts | 306° |
| 2026-05-04 22:18 | 40.91969 | -85.08844 | 33688 ft | 427 kts | 306° |
| 2026-05-04 22:18 | 40.95623 | -85.15038 | 33688 ft | 427 kts | 303° |
| 2026-05-04 22:19 | 40.98142 | -85.22066 | 33690 ft | 422 kts | 283° |
| 2026-05-04 22:19 | 40.98986 | -85.29751 | 33688 ft | 422 kts | 276° |
| 2026-05-04 22:20 | 40.99674 | -85.37463 | 33695 ft | 422 kts | 276° |
| 2026-05-04 22:20 | 41.00389 | -85.45179 | 33693 ft | 422 kts | 276° |
| 2026-05-04 22:21 | 41.01104 | -85.52876 | 33683 ft | 421 kts | 276° |
| 2026-05-04 22:21 | 41.01812 | -85.60579 | 33685 ft | 422 kts | 276° |
| 2026-05-04 22:22 | 41.02517 | -85.68298 | 33676 ft | 423 kts | 276° |
| 2026-05-04 22:22 | 41.03216 | -85.75964 | 33666 ft | 422 kts | 276° |
| 2026-05-04 22:23 | 41.03909 | -85.83721 | 33669 ft | 421 kts | 276° |
| 2026-05-04 22:23 | 41.04597 | -85.91380 | 33669 ft | 422 kts | 276° |
| 2026-05-04 22:24 | 41.05282 | -85.99108 | 33679 ft | 422 kts | 276° |
| 2026-05-04 22:24 | 41.05958 | -86.06828 | 33684 ft | 421 kts | 276° |
| 2026-05-04 22:25 | 41.06625 | -86.14526 | 33682 ft | 422 kts | 276° |
| 2026-05-04 22:25 | 41.07295 | -86.22239 | 33700 ft | 421 kts | 276° |
| 2026-05-04 22:26 | 41.07958 | -86.29953 | 33664 ft | 421 kts | 276° |
| 2026-05-04 22:26 | 41.08622 | -86.37707 | 33657 ft | 421 kts | 276° |
| 2026-05-04 22:27 | 41.09277 | -86.45377 | 33646 ft | 421 kts | 276° |
| 2026-05-04 22:27 | 41.09171 | -86.53124 | 33649 ft | 421 kts | 266° |
| 2026-05-04 22:28 | 41.08655 | -86.60856 | 33647 ft | 420 kts | 265° |
| 2026-05-04 22:28 | 41.08122 | -86.68575 | 33635 ft | 421 kts | 265° |
| 2026-05-04 22:29 | 41.07581 | -86.76295 | 33647 ft | 422 kts | 265° |
| 2026-05-04 22:29 | 41.06859 | -86.84017 | 33659 ft | 422 kts | 258° |
| 2026-05-04 22:30 | 41.05410 | -86.91540 | 33660 ft | 419 kts | 259° |
| 2026-05-04 22:30 | 41.04462 | -86.99161 | 33672 ft | 416 kts | 262° |
| 2026-05-04 22:31 | 41.03578 | -87.06750 | 33663 ft | 418 kts | 262° |
| 2026-05-04 22:31 | 41.02705 | -87.14323 | 33664 ft | 417 kts | 262° |
| 2026-05-04 22:32 | 41.01983 | -87.20653 | 33674 ft | 417 kts | 262° |
| 2026-05-04 22:32 | 41.01122 | -87.28236 | 33659 ft | 419 kts | 262° |
| 2026-05-04 22:33 | 41.00266 | -87.35854 | 33658 ft | 415 kts | 262° |
| 2026-05-04 22:33 | 40.99426 | -87.43452 | 33652 ft | 417 kts | 262° |
| 2026-05-04 22:34 | 40.98597 | -87.51006 | 33647 ft | 415 kts | 262° |
| 2026-05-04 22:34 | 40.97774 | -87.58597 | 33627 ft | 417 kts | 262° |
| 2026-05-04 22:35 | 40.96958 | -87.66164 | 33629 ft | 417 kts | 262° |
| 2026-05-04 22:35 | 40.96149 | -87.73766 | 33628 ft | 416 kts | 262° |
| 2026-05-04 22:36 | 40.95343 | -87.81370 | 33620 ft | 418 kts | 262° |
| 2026-05-04 22:36 | 40.94839 | -87.89004 | 33615 ft | 417 kts | 269° |
| 2026-05-04 22:37 | 40.94930 | -87.96679 | 33625 ft | 418 kts | 271° |
| 2026-05-04 22:37 | 40.95094 | -88.04364 | 33628 ft | 417 kts | 271° |
| 2026-05-04 22:38 | 40.95270 | -88.12029 | 33617 ft | 418 kts | 271° |
| 2026-05-04 22:38 | 40.95460 | -88.19729 | 33619 ft | 419 kts | 271° |
| 2026-05-04 22:39 | 40.95658 | -88.27432 | 33619 ft | 419 kts | 271° |
| 2026-05-04 22:39 | 40.95864 | -88.35139 | 33618 ft | 419 kts | 271° |
| 2026-05-04 22:40 | 40.96076 | -88.42850 | 33607 ft | 419 kts | 271° |
| 2026-05-04 22:40 | 40.96296 | -88.50559 | 33610 ft | 420 kts | 271° |
| 2026-05-04 22:41 | 40.96521 | -88.58274 | 33605 ft | 420 kts | 271° |
| 2026-05-04 22:41 | 40.96755 | -88.65998 | 33606 ft | 420 kts | 271° |
| 2026-05-04 22:42 | 40.96994 | -88.73721 | 33608 ft | 420 kts | 271° |
| 2026-05-04 22:42 | 40.97240 | -88.81441 | 33612 ft | 420 kts | 272° |
| 2026-05-04 22:43 | 40.97486 | -88.89153 | 33612 ft | 418 kts | 272° |
| 2026-05-04 22:43 | 40.97714 | -88.96836 | 33610 ft | 418 kts | 272° |
| 2026-05-04 22:44 | 40.97945 | -89.04511 | 33613 ft | 418 kts | 272° |
| 2026-05-04 22:44 | 40.98181 | -89.12195 | 33610 ft | 418 kts | 272° |
| 2026-05-04 22:45 | 40.98424 | -89.19869 | 33608 ft | 418 kts | 272° |
| 2026-05-04 22:45 | 40.98470 | -89.31376 | 33605 ft | 417 kts | 264° |
| 2026-05-04 22:46 | 40.97701 | -89.38946 | 33606 ft | 418 kts | 262° |
| 2026-05-04 22:46 | 40.96850 | -89.46593 | 33605 ft | 417 kts | 262° |
| 2026-05-04 22:47 | 40.96008 | -89.54145 | 33609 ft | 418 kts | 262° |
| 2026-05-04 22:47 | 40.95162 | -89.61796 | 33607 ft | 417 kts | 262° |
| 2026-05-04 22:48 | 40.94336 | -89.69326 | 33606 ft | 414 kts | 262° |
| 2026-05-04 22:48 | 40.93515 | -89.76866 | 33601 ft | 414 kts | 262° |
| 2026-05-04 22:49 | 40.92700 | -89.84410 | 33602 ft | 414 kts | 262° |
| 2026-05-04 22:49 | 40.91892 | -89.91955 | 33602 ft | 414 kts | 263° |
| 2026-05-04 22:50 | 40.91090 | -89.99504 | 33612 ft | 415 kts | 263° |
| 2026-05-04 22:50 | 40.90268 | -90.07001 | 33582 ft | 411 kts | 263° |
| 2026-05-04 22:51 | 40.89434 | -90.14477 | 33588 ft | 411 kts | 263° |
| 2026-05-04 22:51 | 40.88607 | -90.21953 | 33584 ft | 411 kts | 263° |
| 2026-05-04 22:52 | 40.87786 | -90.29427 | 33585 ft | 411 kts | 263° |
| 2026-05-04 22:52 | 40.86971 | -90.36903 | 33583 ft | 411 kts | 263° |
| 2026-05-04 22:53 | 40.86143 | -90.44358 | 33584 ft | 408 kts | 263° |
| 2026-05-04 22:53 | 40.85300 | -90.51757 | 33587 ft | 408 kts | 263° |
| 2026-05-04 22:54 | 40.84460 | -90.59177 | 33586 ft | 408 kts | 263° |
| 2026-05-04 22:54 | 40.83630 | -90.66585 | 33590 ft | 408 kts | 263° |
| 2026-05-04 22:55 | 40.82759 | -90.73991 | 33595 ft | 409 kts | 261° |
| 2026-05-04 22:55 | 40.81484 | -90.81281 | 33598 ft | 406 kts | 258° |
| 2026-05-04 22:56 | 40.80118 | -90.88516 | 33595 ft | 406 kts | 258° |
| 2026-05-04 22:56 | 40.78747 | -90.95759 | 33588 ft | 406 kts | 258° |
| 2026-05-04 22:57 | 40.77383 | -91.02988 | 33587 ft | 406 kts | 258° |
| 2026-05-04 22:57 | 40.76028 | -91.10215 | 33593 ft | 406 kts | 258° |
| 2026-05-04 22:58 | 40.74876 | -91.17480 | 33593 ft | 402 kts | 265° |
| 2026-05-04 22:58 | 40.75323 | -91.24775 | 33587 ft | 402 kts | 287° |
| 2026-05-04 22:59 | 40.77346 | -91.31658 | 33595 ft | 403 kts | 291° |
| 2026-05-04 22:59 | 40.79427 | -91.38524 | 33586 ft | 403 kts | 290° |
| 2026-05-04 23:00 | 40.81472 | -91.45394 | 33579 ft | 401 kts | 290° |
| 2026-05-04 23:00 | 40.83495 | -91.52267 | 33581 ft | 402 kts | 290° |
| 2026-05-04 23:01 | 40.85512 | -91.59084 | 33581 ft | 397 kts | 290° |
| 2026-05-04 23:01 | 40.87509 | -91.65890 | 33587 ft | 397 kts | 290° |
| 2026-05-04 23:02 | 40.89487 | -91.72696 | 33589 ft | 397 kts | 290° |
| 2026-05-04 23:02 | 40.91499 | -91.79535 | 33584 ft | 400 kts | 290° |
| 2026-05-04 23:03 | 40.93512 | -91.86390 | 33579 ft | 400 kts | 290° |
| 2026-05-04 23:03 | 40.95513 | -91.93261 | 33575 ft | 398 kts | 290° |
| 2026-05-04 23:04 | 40.97475 | -92.00019 | 33577 ft | 396 kts | 289° |
| 2026-05-04 23:04 | 40.99446 | -92.06828 | 33570 ft | 396 kts | 289° |
| 2026-05-04 23:05 | 41.01410 | -92.13631 | 33565 ft | 396 kts | 290° |
| 2026-05-04 23:05 | 41.03362 | -92.20451 | 33573 ft | 396 kts | 289° |
| 2026-05-04 23:06 | 41.05323 | -92.27257 | 33584 ft | 396 kts | 290° |
| 2026-05-04 23:06 | 41.07279 | -92.34070 | 33593 ft | 395 kts | 289° |
| 2026-05-04 23:07 | 41.09226 | -92.40877 | 33589 ft | 395 kts | 289° |
| 2026-05-04 23:07 | 41.11164 | -92.47680 | 33605 ft | 396 kts | 289° |
| 2026-05-04 23:08 | 41.13110 | -92.54530 | 33592 ft | 397 kts | 289° |
| 2026-05-04 23:08 | 41.15046 | -92.61384 | 33598 ft | 397 kts | 289° |
| 2026-05-04 23:09 | 41.16991 | -92.68242 | 33597 ft | 396 kts | 289° |
| 2026-05-04 23:09 | 41.18908 | -92.75050 | 33594 ft | 394 kts | 289° |
| 2026-05-04 23:10 | 41.20833 | -92.81876 | 33600 ft | 394 kts | 289° |
| 2026-05-04 23:10 | 41.22750 | -92.88702 | 33606 ft | 394 kts | 289° |
| 2026-05-04 23:11 | 41.24655 | -92.95533 | 33607 ft | 394 kts | 289° |
| 2026-05-04 23:11 | 41.26562 | -93.02362 | 33610 ft | 394 kts | 289° |
| 2026-05-04 23:12 | 41.28464 | -93.09198 | 33613 ft | 393 kts | 289° |
| 2026-05-04 23:12 | 41.30356 | -93.16029 | 33613 ft | 393 kts | 289° |
| 2026-05-04 23:13 | 41.32251 | -93.22897 | 33617 ft | 397 kts | 289° |
| 2026-05-04 23:13 | 41.34146 | -93.29804 | 33609 ft | 397 kts | 289° |
| 2026-05-04 23:14 | 41.36059 | -93.36707 | 33608 ft | 397 kts | 289° |
| 2026-05-04 23:14 | 41.37960 | -93.43609 | 33604 ft | 397 kts | 289° |
| 2026-05-04 23:15 | 41.39533 | -93.49353 | 33604 ft | 397 kts | 289° |
| 2026-05-04 23:15 | 41.41416 | -93.56266 | 33607 ft | 397 kts | 289° |
| 2026-05-04 23:16 | 41.43259 | -93.63213 | 33605 ft | 397 kts | 285° |
| 2026-05-04 23:16 | 41.43970 | -93.70494 | 33609 ft | 397 kts | 273° |
| 2026-05-04 23:17 | 41.44175 | -93.77857 | 33611 ft | 398 kts | 273° |
| 2026-05-04 23:17 | 41.44398 | -93.85198 | 33612 ft | 395 kts | 274° |
| 2026-05-04 23:18 | 41.44622 | -93.92514 | 33619 ft | 395 kts | 274° |
| 2026-05-04 23:18 | 41.44846 | -93.99843 | 33619 ft | 395 kts | 274° |
| 2026-05-04 23:19 | 41.45059 | -94.07161 | 33619 ft | 395 kts | 274° |
| 2026-05-04 23:19 | 41.45275 | -94.14482 | 33626 ft | 395 kts | 273° |
| 2026-05-04 23:20 | 41.45476 | -94.21756 | 33624 ft | 395 kts | 273° |
| 2026-05-04 23:20 | 41.45675 | -94.29068 | 33630 ft | 394 kts | 273° |
| 2026-05-04 23:21 | 41.45874 | -94.36369 | 33631 ft | 394 kts | 273° |
| 2026-05-04 23:21 | 41.46072 | -94.43678 | 33636 ft | 394 kts | 273° |
| 2026-05-04 23:22 | 41.46266 | -94.50985 | 33636 ft | 395 kts | 273° |
| 2026-05-04 23:22 | 41.46453 | -94.58306 | 33634 ft | 394 kts | 273° |
| 2026-05-04 23:23 | 41.46645 | -94.65587 | 33642 ft | 393 kts | 273° |
| 2026-05-04 23:23 | 41.46817 | -94.72879 | 33672 ft | 395 kts | 273° |
| 2026-05-04 23:24 | 41.46992 | -94.80202 | 33674 ft | 396 kts | 273° |
| 2026-05-04 23:24 | 41.47161 | -94.87535 | 33683 ft | 396 kts | 273° |
| 2026-05-04 23:25 | 41.47325 | -94.94879 | 33688 ft | 396 kts | 273° |
| 2026-05-04 23:25 | 41.47481 | -95.02190 | 33689 ft | 394 kts | 273° |
| 2026-05-04 23:26 | 41.47634 | -95.09491 | 33689 ft | 394 kts | 273° |
| 2026-05-04 23:26 | 41.47783 | -95.16793 | 33686 ft | 394 kts | 273° |
| 2026-05-04 23:27 | 41.47926 | -95.24082 | 33685 ft | 394 kts | 273° |
| 2026-05-04 23:27 | 41.48063 | -95.31390 | 33683 ft | 394 kts | 273° |
| 2026-05-04 23:28 | 41.48196 | -95.38677 | 33687 ft | 393 kts | 273° |
| 2026-05-04 23:28 | 41.48323 | -95.45966 | 33689 ft | 393 kts | 272° |
| 2026-05-04 23:29 | 41.48454 | -95.53255 | 33717 ft | 393 kts | 272° |
| 2026-05-04 23:29 | 41.48579 | -95.60540 | 33709 ft | 393 kts | 272° |
| 2026-05-04 23:30 | 41.48676 | -95.66826 | 33700 ft | 393 kts | 272° |
| 2026-05-04 23:30 | 41.48781 | -95.74100 | 33693 ft | 392 kts | 272° |
| 2026-05-04 23:31 | 41.48885 | -95.81356 | 33698 ft | 391 kts | 272° |
| 2026-05-04 23:31 | 41.48989 | -95.88608 | 33702 ft | 391 kts | 272° |
| 2026-05-04 23:32 | 41.49086 | -95.95852 | 33710 ft | 391 kts | 272° |
| 2026-05-04 23:32 | 41.49174 | -96.03113 | 33715 ft | 391 kts | 272° |
| 2026-05-04 23:33 | 41.49257 | -96.10371 | 33713 ft | 391 kts | 272° |
| 2026-05-04 23:33 | 41.49360 | -96.17592 | 33730 ft | 390 kts | 272° |
| 2026-05-04 23:34 | 41.49448 | -96.24821 | 33732 ft | 390 kts | 272° |
| 2026-05-04 23:34 | 41.49526 | -96.32048 | 33730 ft | 390 kts | 272° |
| 2026-05-04 23:35 | 41.49594 | -96.39227 | 33733 ft | 389 kts | 272° |
| 2026-05-04 23:35 | 41.49663 | -96.46450 | 33728 ft | 389 kts | 272° |
| 2026-05-04 23:36 | 41.49718 | -96.53663 | 33732 ft | 389 kts | 272° |
| 2026-05-04 23:36 | 41.49776 | -96.60884 | 33742 ft | 389 kts | 272° |
| 2026-05-04 23:37 | 41.49827 | -96.68094 | 33746 ft | 389 kts | 272° |
| 2026-05-04 23:37 | 41.49878 | -96.75316 | 33759 ft | 389 kts | 272° |
| 2026-05-04 23:38 | 41.49925 | -96.82538 | 33757 ft | 389 kts | 272° |
| 2026-05-04 23:38 | 41.49962 | -96.89640 | 33761 ft | 387 kts | 272° |
| 2026-05-04 23:39 | 41.49995 | -96.96818 | 33769 ft | 387 kts | 272° |
| 2026-05-04 23:39 | 41.50026 | -97.04007 | 33774 ft | 387 kts | 272° |
| 2026-05-04 23:40 | 41.50038 | -97.11183 | 33778 ft | 387 kts | 272° |
| 2026-05-04 23:40 | 41.50062 | -97.18368 | 33783 ft | 387 kts | 272° |
| 2026-05-04 23:41 | 41.50083 | -97.25555 | 33786 ft | 387 kts | 271° |
| 2026-05-04 23:41 | 41.50099 | -97.32735 | 33791 ft | 387 kts | 272° |
| 2026-05-04 23:42 | 41.50107 | -97.39923 | 33795 ft | 387 kts | 271° |
| 2026-05-04 23:42 | 41.50113 | -97.47104 | 33793 ft | 387 kts | 271° |
| 2026-05-04 23:43 | 41.50109 | -97.54283 | 33791 ft | 387 kts | 271° |
| 2026-05-04 23:43 | 41.50095 | -97.61464 | 33785 ft | 387 kts | 271° |
| 2026-05-04 23:44 | 41.50074 | -97.68588 | 33794 ft | 387 kts | 271° |
| 2026-05-04 23:44 | 41.50063 | -97.75758 | 33799 ft | 386 kts | 271° |
| 2026-05-04 23:45 | 41.50035 | -97.82925 | 33813 ft | 386 kts | 271° |
| 2026-05-04 23:45 | 41.50010 | -97.90137 | 33811 ft | 386 kts | 271° |
| 2026-05-04 23:46 | 41.49990 | -97.97256 | 33827 ft | 387 kts | 271° |
| 2026-05-04 23:46 | 41.50457 | -98.04375 | 33824 ft | 385 kts | 278° |
| 2026-05-04 23:47 | 41.51269 | -98.11446 | 33826 ft | 385 kts | 279° |
| 2026-05-04 23:47 | 41.52071 | -98.18506 | 33826 ft | 385 kts | 279° |
| 2026-05-04 23:48 | 41.52890 | -98.25570 | 33821 ft | 385 kts | 279° |
| 2026-05-04 23:48 | 41.53689 | -98.32687 | 33816 ft | 385 kts | 278° |
| 2026-05-04 23:49 | 41.54471 | -98.39768 | 33809 ft | 385 kts | 278° |
| 2026-05-04 23:49 | 41.55248 | -98.46783 | 33802 ft | 385 kts | 278° |
| 2026-05-04 23:50 | 41.55904 | -98.52705 | 33809 ft | 385 kts | 278° |
| 2026-05-04 23:50 | 41.56677 | -98.59784 | 33806 ft | 385 kts | 278° |
| 2026-05-04 23:51 | 41.57585 | -98.68007 | 33817 ft | 385 kts | 278° |
| 2026-05-04 23:51 | 41.58363 | -98.75083 | 33800 ft | 385 kts | 278° |
| 2026-05-04 23:52 | 41.59128 | -98.82165 | 33821 ft | 385 kts | 278° |
| 2026-05-04 23:52 | 41.59889 | -98.89302 | 33815 ft | 385 kts | 278° |
| 2026-05-04 23:53 | 41.60638 | -98.96382 | 33826 ft | 385 kts | 278° |
| 2026-05-04 23:53 | 41.61375 | -99.03433 | 33824 ft | 385 kts | 278° |
| 2026-05-04 23:54 | 41.62123 | -99.10518 | 33809 ft | 385 kts | 278° |
| 2026-05-04 23:54 | 41.62875 | -99.17621 | 33823 ft | 387 kts | 278° |
| 2026-05-04 23:55 | 41.63614 | -99.24757 | 33815 ft | 387 kts | 278° |
| 2026-05-04 23:56 | 41.64723 | -99.35453 | 33806 ft | 388 kts | 278° |
| 2026-05-04 23:56 | 41.65455 | -99.42598 | 33811 ft | 388 kts | 278° |
| 2026-05-04 23:57 | 41.66178 | -99.49746 | 33817 ft | 387 kts | 278° |
| 2026-05-04 23:57 | 41.66893 | -99.56882 | 33822 ft | 387 kts | 277° |
| 2026-05-04 23:58 | 41.67610 | -99.64026 | 33823 ft | 387 kts | 277° |
| 2026-05-04 23:58 | 41.68317 | -99.71159 | 33820 ft | 387 kts | 277° |
| 2026-05-04 23:59 | 41.69023 | -99.78301 | 33820 ft | 387 kts | 277° |
| 2026-05-04 23:59 | 41.69725 | -99.85437 | 33810 ft | 387 kts | 277° |
| 2026-05-05 00:00 | 41.70295 | -99.91382 | 33824 ft | 388 kts | 277° |
| 2026-05-05 00:00 | 41.70991 | -99.98531 | 33834 ft | 388 kts | 277° |
| 2026-05-05 00:01 | 41.71694 | -100.05687 | 33840 ft | 388 kts | 277° |
| 2026-05-05 00:01 | 41.72392 | -100.12842 | 33838 ft | 388 kts | 277° |
| 2026-05-05 00:02 | 41.73073 | -100.20007 | 33838 ft | 388 kts | 277° |
| 2026-05-05 00:02 | 41.73754 | -100.27180 | 33861 ft | 389 kts | 277° |
| 2026-05-05 00:03 | 41.74435 | -100.34383 | 33862 ft | 391 kts | 277° |
| 2026-05-05 00:03 | 41.75103 | -100.41564 | 33869 ft | 391 kts | 277° |
| 2026-05-05 00:04 | 41.75767 | -100.48791 | 33876 ft | 391 kts | 277° |
| 2026-05-05 00:04 | 41.76440 | -100.56015 | 33877 ft | 391 kts | 277° |
| 2026-05-05 00:05 | 41.77108 | -100.63251 | 33874 ft | 391 kts | 277° |
| 2026-05-05 00:05 | 41.77763 | -100.70488 | 33872 ft | 391 kts | 276° |
| 2026-05-05 00:06 | 41.78405 | -100.77720 | 33875 ft | 391 kts | 276° |
| 2026-05-05 00:06 | 41.79061 | -100.84959 | 33866 ft | 391 kts | 276° |
| 2026-05-05 00:07 | 41.79708 | -100.92191 | 33860 ft | 391 kts | 276° |
| 2026-05-05 00:07 | 41.80350 | -100.99430 | 33853 ft | 391 kts | 276° |
| 2026-05-05 00:08 | 41.80738 | -101.06695 | 33854 ft | 391 kts | 272° |
| 2026-05-05 00:08 | 41.80874 | -101.13978 | 33852 ft | 391 kts | 272° |
| 2026-05-05 00:09 | 41.81012 | -101.21265 | 33852 ft | 391 kts | 272° |
| 2026-05-05 00:09 | 41.81148 | -101.28553 | 33860 ft | 391 kts | 272° |
| 2026-05-05 00:10 | 41.81282 | -101.35835 | 33851 ft | 390 kts | 271° |
| 2026-05-05 00:10 | 41.81407 | -101.43068 | 33861 ft | 391 kts | 271° |
| 2026-05-05 00:11 | 41.81526 | -101.50347 | 33861 ft | 391 kts | 271° |
| 2026-05-05 00:11 | 41.81649 | -101.57628 | 33863 ft | 391 kts | 271° |
| 2026-05-05 00:12 | 41.81763 | -101.64920 | 33870 ft | 393 kts | 271° |
| 2026-05-05 00:12 | 41.81876 | -101.72270 | 33854 ft | 395 kts | 271° |
| 2026-05-05 00:13 | 41.81981 | -101.79631 | 33853 ft | 395 kts | 271° |
| 2026-05-05 00:13 | 41.82077 | -101.87002 | 33858 ft | 395 kts | 271° |
| 2026-05-05 00:14 | 41.82174 | -101.94369 | 33851 ft | 395 kts | 271° |
| 2026-05-05 00:14 | 41.82265 | -102.01744 | 33857 ft | 395 kts | 271° |
| 2026-05-05 00:15 | 41.82352 | -102.09122 | 33853 ft | 396 kts | 271° |
| 2026-05-05 00:15 | 41.82438 | -102.16493 | 33857 ft | 396 kts | 271° |
| 2026-05-05 00:16 | 41.82508 | -102.23867 | 33853 ft | 396 kts | 271° |
| 2026-05-05 00:16 | 41.82585 | -102.31244 | 33849 ft | 396 kts | 271° |
| 2026-05-05 00:17 | 41.82653 | -102.38615 | 33848 ft | 396 kts | 271° |
| 2026-05-05 00:17 | 41.82712 | -102.45995 | 33844 ft | 396 kts | 270° |
| 2026-05-05 00:18 | 41.82767 | -102.53376 | 33854 ft | 396 kts | 270° |
| 2026-05-05 00:18 | 41.82819 | -102.60744 | 33867 ft | 396 kts | 270° |
| 2026-05-05 00:19 | 41.82874 | -102.68128 | 33873 ft | 396 kts | 270° |
| 2026-05-05 00:19 | 41.82924 | -102.75454 | 33874 ft | 396 kts | 270° |
| 2026-05-05 00:20 | 41.82958 | -102.82843 | 33867 ft | 397 kts | 270° |
| 2026-05-05 00:20 | 41.82995 | -102.90235 | 33868 ft | 397 kts | 270° |
| 2026-05-05 00:21 | 41.83027 | -102.97640 | 33861 ft | 397 kts | 270° |
| 2026-05-05 00:21 | 41.83050 | -103.05030 | 33854 ft | 397 kts | 270° |
| 2026-05-05 00:22 | 41.83070 | -103.12430 | 33840 ft | 397 kts | 270° |
| 2026-05-05 00:22 | 41.83082 | -103.19854 | 33846 ft | 399 kts | 270° |
| 2026-05-05 00:23 | 41.83096 | -103.27287 | 33858 ft | 399 kts | 270° |
| 2026-05-05 00:23 | 41.83106 | -103.34732 | 33866 ft | 399 kts | 270° |
| 2026-05-05 00:24 | 41.83101 | -103.42201 | 33880 ft | 402 kts | 270° |
| 2026-05-05 00:24 | 41.83097 | -103.49710 | 33860 ft | 403 kts | 270° |
| 2026-05-05 00:25 | 41.83083 | -103.57226 | 33878 ft | 403 kts | 270° |
| 2026-05-05 00:25 | 41.83062 | -103.64743 | 33881 ft | 403 kts | 270° |
| 2026-05-05 00:26 | 41.83063 | -103.72263 | 33877 ft | 403 kts | 270° |
| 2026-05-05 00:26 | 41.83035 | -103.79778 | 33875 ft | 404 kts | 270° |
| 2026-05-05 00:27 | 41.83008 | -103.87301 | 33849 ft | 402 kts | 270° |
| 2026-05-05 00:27 | 41.82977 | -103.94772 | 33836 ft | 401 kts | 270° |
| 2026-05-05 00:28 | 41.82940 | -104.02246 | 33835 ft | 401 kts | 270° |
| 2026-05-05 00:28 | 41.82898 | -104.09718 | 33847 ft | 401 kts | 269° |
| 2026-05-05 00:29 | 41.82858 | -104.17178 | 33848 ft | 401 kts | 269° |
| 2026-05-05 00:29 | 41.82809 | -104.24648 | 33845 ft | 401 kts | 269° |
| 2026-05-05 00:30 | 41.82754 | -104.32134 | 33846 ft | 401 kts | 269° |
| 2026-05-05 00:30 | 41.82693 | -104.39613 | 33849 ft | 401 kts | 269° |
| 2026-05-05 00:31 | 41.82624 | -104.47091 | 33844 ft | 401 kts | 269° |
| 2026-05-05 00:31 | 41.82552 | -104.54569 | 33841 ft | 401 kts | 269° |
| 2026-05-05 00:32 | 41.82473 | -104.62038 | 33849 ft | 401 kts | 269° |
| 2026-05-05 00:32 | 41.82394 | -104.69508 | 33861 ft | 400 kts | 269° |
| 2026-05-05 00:33 | 41.82301 | -104.76977 | 33874 ft | 400 kts | 269° |
| 2026-05-05 00:33 | 41.82210 | -104.84440 | 33879 ft | 400 kts | 269° |
| 2026-05-05 00:34 | 41.82123 | -104.91853 | 33883 ft | 400 kts | 269° |
| 2026-05-05 00:34 | 41.82024 | -104.99339 | 33876 ft | 402 kts | 269° |
| 2026-05-05 00:35 | 41.81912 | -105.06838 | 33863 ft | 403 kts | 269° |
| 2026-05-05 00:35 | 41.81804 | -105.14346 | 33865 ft | 403 kts | 269° |
| 2026-05-05 00:36 | 41.81692 | -105.21851 | 33863 ft | 403 kts | 269° |
| 2026-05-05 00:36 | 41.81570 | -105.29349 | 33839 ft | 403 kts | 269° |
| 2026-05-05 00:37 | 41.81441 | -105.36873 | 33879 ft | 404 kts | 269° |
| 2026-05-05 00:37 | 41.81312 | -105.44393 | 33875 ft | 404 kts | 269° |
| 2026-05-05 00:38 | 41.81178 | -105.51915 | 33860 ft | 404 kts | 269° |
| 2026-05-05 00:38 | 41.81038 | -105.59447 | 33859 ft | 404 kts | 269° |
| 2026-05-05 00:39 | 41.80894 | -105.66974 | 33842 ft | 403 kts | 269° |
| 2026-05-05 00:39 | 41.80747 | -105.74461 | 33849 ft | 402 kts | 269° |
| 2026-05-05 00:40 | 41.80592 | -105.81958 | 33832 ft | 402 kts | 269° |
| 2026-05-05 00:40 | 41.80435 | -105.89451 | 33830 ft | 402 kts | 268° |
| 2026-05-05 00:41 | 41.80266 | -105.96935 | 33817 ft | 402 kts | 268° |
| 2026-05-05 00:41 | 41.80096 | -106.04421 | 33811 ft | 401 kts | 269° |
| 2026-05-05 00:42 | 41.79925 | -106.11881 | 33800 ft | 400 kts | 268° |
| 2026-05-05 00:42 | 41.79747 | -106.19321 | 33799 ft | 400 kts | 268° |
| 2026-05-05 00:43 | 41.79560 | -106.26768 | 33779 ft | 400 kts | 268° |
| 2026-05-05 00:43 | 41.79367 | -106.34212 | 33778 ft | 400 kts | 268° |
| 2026-05-05 00:44 | 41.79180 | -106.41638 | 33759 ft | 397 kts | 268° |
| 2026-05-05 00:44 | 41.78987 | -106.49024 | 33753 ft | 397 kts | 268° |
| 2026-05-05 00:45 | 41.78789 | -106.56365 | 33752 ft | 397 kts | 268° |
| 2026-05-05 00:45 | 41.78584 | -106.63754 | 33737 ft | 397 kts | 268° |
| 2026-05-05 00:46 | 41.78374 | -106.71146 | 33724 ft | 397 kts | 268° |
| 2026-05-05 00:46 | 41.78161 | -106.78559 | 33732 ft | 401 kts | 268° |
| 2026-05-05 00:47 | 41.77939 | -106.86060 | 33722 ft | 404 kts | 268° |
| 2026-05-05 00:47 | 41.77712 | -106.93583 | 33824 ft | 404 kts | 268° |
| 2026-05-05 00:48 | 41.77507 | -106.99846 | 33860 ft | 404 kts | 268° |
| 2026-05-05 00:48 | 41.77275 | -107.07370 | 33892 ft | 404 kts | 268° |
| 2026-05-05 00:49 | 41.77035 | -107.14894 | 33910 ft | 404 kts | 268° |
| 2026-05-05 00:49 | 41.76787 | -107.22411 | 33909 ft | 404 kts | 268° |
| 2026-05-05 00:50 | 41.76540 | -107.29918 | 33910 ft | 404 kts | 268° |
| 2026-05-05 00:50 | 41.76282 | -107.37438 | 33879 ft | 404 kts | 268° |
| 2026-05-05 00:51 | 41.76015 | -107.45023 | 33830 ft | 406 kts | 268° |
| 2026-05-05 00:51 | 41.75742 | -107.52582 | 33782 ft | 406 kts | 268° |
| 2026-05-05 00:52 | 41.75667 | -107.60135 | 33731 ft | 406 kts | 274° |
| 2026-05-05 00:52 | 41.76150 | -107.67634 | 33688 ft | 407 kts | 275° |
| 2026-05-05 00:53 | 41.76644 | -107.75227 | 33669 ft | 406 kts | 274° |
| 2026-05-05 00:53 | 41.77118 | -107.82738 | 33677 ft | 404 kts | 274° |
| 2026-05-05 00:54 | 41.77584 | -107.90201 | 33676 ft | 405 kts | 274° |
| 2026-05-05 00:54 | 41.78046 | -107.97711 | 33681 ft | 405 kts | 274° |
| 2026-05-05 00:55 | 41.78501 | -108.05271 | 33676 ft | 405 kts | 274° |
| 2026-05-05 00:55 | 41.78952 | -108.12801 | 33680 ft | 411 kts | 274° |
| 2026-05-05 00:56 | 41.79406 | -108.20446 | 33683 ft | 412 kts | 274° |
| 2026-05-05 00:56 | 41.79854 | -108.28104 | 33676 ft | 412 kts | 274° |
| 2026-05-05 00:57 | 41.80308 | -108.35765 | 33678 ft | 412 kts | 274° |
| 2026-05-05 00:57 | 41.80750 | -108.43434 | 33666 ft | 412 kts | 274° |
| 2026-05-05 00:58 | 41.81188 | -108.51124 | 33675 ft | 414 kts | 274° |
| 2026-05-05 00:58 | 41.81626 | -108.58819 | 33676 ft | 414 kts | 274° |
| 2026-05-05 00:59 | 41.82056 | -108.66527 | 33678 ft | 414 kts | 274° |
| 2026-05-05 00:59 | 41.82479 | -108.74227 | 33674 ft | 414 kts | 274° |
| 2026-05-05 01:00 | 41.82896 | -108.81922 | 33710 ft | 412 kts | 273° |
| 2026-05-05 01:00 | 41.83301 | -108.89517 | 33735 ft | 404 kts | 273° |
| 2026-05-05 01:01 | 41.83699 | -108.97064 | 33770 ft | 411 kts | 274° |
| 2026-05-05 01:01 | 41.84101 | -109.04803 | 33765 ft | 419 kts | 274° |
| 2026-05-05 01:02 | 41.84501 | -109.12608 | 33740 ft | 420 kts | 273° |
| 2026-05-05 01:02 | 41.84903 | -109.20432 | 33732 ft | 421 kts | 273° |
| 2026-05-05 01:03 | 41.85297 | -109.28212 | 33721 ft | 421 kts | 273° |
| 2026-05-05 01:03 | 41.85682 | -109.36097 | 33696 ft | 421 kts | 273° |
| 2026-05-05 01:04 | 41.86061 | -109.43865 | 33684 ft | 421 kts | 273° |
| 2026-05-05 01:04 | 41.86619 | -109.55604 | 33673 ft | 420 kts | 273° |
| 2026-05-05 01:05 | 41.86979 | -109.63413 | 33679 ft | 420 kts | 273° |
| 2026-05-05 01:05 | 41.87335 | -109.71240 | 33675 ft | 420 kts | 272° |
| 2026-05-05 01:06 | 41.87682 | -109.79063 | 33670 ft | 420 kts | 272° |
| 2026-05-05 01:06 | 41.88036 | -109.86905 | 33669 ft | 421 kts | 272° |
| 2026-05-05 01:07 | 41.88396 | -109.94803 | 33676 ft | 427 kts | 273° |
| 2026-05-05 01:07 | 41.88745 | -110.02772 | 33671 ft | 428 kts | 272° |
| 2026-05-05 01:08 | 41.89089 | -110.10744 | 33686 ft | 428 kts | 272° |
| 2026-05-05 01:08 | 41.89422 | -110.18714 | 33734 ft | 428 kts | 272° |
| 2026-05-05 01:09 | 41.89753 | -110.26709 | 33791 ft | 429 kts | 272° |
| 2026-05-05 01:09 | 41.90080 | -110.34712 | 33838 ft | 429 kts | 272° |
| 2026-05-05 01:10 | 41.90398 | -110.42701 | 33878 ft | 429 kts | 272° |
| 2026-05-05 01:10 | 41.90715 | -110.50685 | 33904 ft | 427 kts | 272° |
| 2026-05-05 01:11 | 41.91014 | -110.58551 | 33497 ft | 423 kts | 272° |
| 2026-05-05 01:11 | 41.91160 | -110.62521 | 33190 ft | 428 kts | 272° |
| 2026-05-05 01:11 | 41.91309 | -110.66527 | 32575 ft | 429 kts | 272° |
| 2026-05-05 01:12 | 41.91456 | -110.70523 | 31858 ft | 428 kts | 272° |
| 2026-05-05 01:12 | 41.91611 | -110.74514 | 31090 ft | 429 kts | 273° |
| 2026-05-05 01:12 | 41.91768 | -110.78526 | 30311 ft | 431 kts | 274° |
| 2026-05-05 01:12 | 41.91779 | -110.82551 | 29550 ft | 432 kts | 268° |
| 2026-05-05 01:13 | 41.91595 | -110.86629 | 29098 ft | 445 kts | 268° |
| 2026-05-05 01:13 | 41.91394 | -110.90841 | 28753 ft | 457 kts | 268° |
| 2026-05-05 01:13 | 41.91197 | -110.95095 | 28406 ft | 459 kts | 268° |
| 2026-05-05 01:13 | 41.91003 | -110.99329 | 28029 ft | 448 kts | 267° |
| 2026-05-05 01:14 | 41.90806 | -111.03449 | 27657 ft | 437 kts | 268° |
| 2026-05-05 01:14 | 41.90608 | -111.07513 | 27292 ft | 436 kts | 267° |
| 2026-05-05 01:14 | 41.90408 | -111.11586 | 26939 ft | 438 kts | 267° |
| 2026-05-05 01:14 | 41.90205 | -111.15668 | 26576 ft | 441 kts | 267° |
| 2026-05-05 01:15 | 41.89989 | -111.19795 | 26206 ft | 444 kts | 267° |
| 2026-05-05 01:15 | 41.89770 | -111.23908 | 25833 ft | 442 kts | 266° |
| 2026-05-05 01:15 | 41.89554 | -111.28009 | 25466 ft | 439 kts | 266° |
| 2026-05-05 01:15 | 41.89347 | -111.32090 | 25087 ft | 436 kts | 267° |
| 2026-05-05 01:16 | 41.89141 | -111.36148 | 24710 ft | 434 kts | 267° |
| 2026-05-05 01:16 | 41.88929 | -111.40170 | 24348 ft | 432 kts | 267° |
| 2026-05-05 01:16 | 41.88714 | -111.44178 | 23979 ft | 429 kts | 266° |
| 2026-05-05 01:16 | 41.88503 | -111.48161 | 23616 ft | 427 kts | 267° |
| 2026-05-05 01:17 | 41.88297 | -111.52117 | 23236 ft | 424 kts | 266° |
| 2026-05-05 01:17 | 41.88049 | -111.56053 | 22804 ft | 422 kts | 263° |
| 2026-05-05 01:17 | 41.87442 | -111.59892 | 22459 ft | 420 kts | 256° |
| 2026-05-05 01:17 | 41.86703 | -111.63663 | 22086 ft | 417 kts | 256° |
| 2026-05-05 01:18 | 41.85947 | -111.67416 | 21725 ft | 414 kts | 255° |
| 2026-05-05 01:18 | 41.85202 | -111.71141 | 21380 ft | 413 kts | 255° |
| 2026-05-05 01:18 | 41.84467 | -111.74845 | 21034 ft | 410 kts | 256° |
| 2026-05-05 01:18 | 41.83734 | -111.78541 | 20685 ft | 409 kts | 255° |
| 2026-05-05 01:19 | 41.83003 | -111.82218 | 20333 ft | 408 kts | 255° |
| 2026-05-05 01:19 | 41.82276 | -111.85888 | 19984 ft | 406 kts | 255° |
| 2026-05-05 01:19 | 41.81553 | -111.89541 | 19635 ft | 404 kts | 255° |
| 2026-05-05 01:19 | 41.80765 | -111.93136 | 19286 ft | 402 kts | 249° |
| 2026-05-05 01:20 | 41.79475 | -111.96434 | 18938 ft | 400 kts | 234° |
| 2026-05-05 01:20 | 41.77595 | -111.99144 | 18598 ft | 395 kts | 219° |
| 2026-05-05 01:20 | 41.75257 | -112.01082 | 18255 ft | 394 kts | 204° |
| 2026-05-05 01:20 | 41.72627 | -112.02141 | 17928 ft | 404 kts | 190° |
| 2026-05-05 01:21 | 41.69774 | -112.02623 | 17607 ft | 419 kts | 186° |
| 2026-05-05 01:21 | 41.66905 | -112.03015 | 17269 ft | 409 kts | 186° |
| 2026-05-05 01:21 | 41.64106 | -112.03410 | 16923 ft | 400 kts | 187° |
| 2026-05-05 01:21 | 41.61368 | -112.03814 | 16577 ft | 392 kts | 187° |
| 2026-05-05 01:22 | 41.58674 | -112.04224 | 16236 ft | 386 kts | 187° |
| 2026-05-05 01:22 | 41.56018 | -112.04565 | 15899 ft | 384 kts | 182° |
| 2026-05-05 01:22 | 41.54256 | -112.04550 | 15685 ft | 383 kts | 179° |
| 2026-05-05 01:22 | 41.50696 | -112.04368 | 15243 ft | 381 kts | 178° |
| 2026-05-05 01:23 | 41.49214 | -112.04284 | 15055 ft | 380 kts | 178° |
| 2026-05-05 01:23 | 41.46579 | -112.04129 | 14672 ft | 379 kts | 178° |
| 2026-05-05 01:23 | 41.43959 | -112.03980 | 14349 ft | 375 kts | 178° |
| 2026-05-05 01:23 | 41.41349 | -112.03833 | 14027 ft | 375 kts | 178° |
| 2026-05-05 01:24 | 41.38749 | -112.03687 | 13707 ft | 373 kts | 178° |
| 2026-05-05 01:24 | 41.36164 | -112.03543 | 13365 ft | 371 kts | 178° |
| 2026-05-05 01:24 | 41.33599 | -112.03404 | 13012 ft | 365 kts | 178° |
| 2026-05-05 01:24 | 41.31109 | -112.03270 | 12698 ft | 349 kts | 178° |
| 2026-05-05 01:25 | 41.28740 | -112.03139 | 12428 ft | 332 kts | 178° |
| 2026-05-05 01:25 | 41.26489 | -112.03013 | 12093 ft | 316 kts | 178° |
| 2026-05-05 01:25 | 41.24354 | -112.02875 | 11764 ft | 299 kts | 181° |
| 2026-05-05 01:25 | 41.22313 | -112.02962 | 11312 ft | 289 kts | 185° |
| 2026-05-05 01:26 | 41.20331 | -112.03241 | 10903 ft | 286 kts | 188° |
| 2026-05-05 01:26 | 41.18368 | -112.03519 | 10522 ft | 283 kts | 186° |
| 2026-05-05 01:26 | 41.16414 | -112.03757 | 10252 ft | 281 kts | 186° |
| 2026-05-05 01:26 | 41.15099 | -112.03897 | 10054 ft | 278 kts | 184° |
| 2026-05-05 01:27 | 41.12557 | -112.03768 | 9498 ft | 270 kts | 176° |
| 2026-05-05 01:27 | 41.10755 | -112.03532 | 9111 ft | 258 kts | 176° |
| 2026-05-05 01:27 | 41.09007 | -112.03302 | 8861 ft | 246 kts | 176° |
| 2026-05-05 01:27 | 41.07327 | -112.03055 | 8562 ft | 240 kts | 176° |
| 2026-05-05 01:28 | 41.05674 | -112.02849 | 8186 ft | 237 kts | 175° |
| 2026-05-05 01:28 | 41.04025 | -112.02652 | 8024 ft | 238 kts | 176° |
| 2026-05-05 01:28 | 41.02376 | -112.02457 | 7722 ft | 236 kts | 176° |
| 2026-05-05 01:28 | 41.00733 | -112.02264 | 7499 ft | 236 kts | 176° |
| 2026-05-05 01:29 | 40.99137 | -112.02076 | 7451 ft | 224 kts | 176° |
| 2026-05-05 01:29 | 40.98122 | -112.01958 | 7415 ft | 211 kts | 176° |
| 2026-05-05 01:29 | 40.96707 | -112.01792 | 7280 ft | 201 kts | 177° |
| 2026-05-05 01:29 | 40.94858 | -112.01574 | 6970 ft | 201 kts | 177° |
| 2026-05-05 01:30 | 40.93921 | -112.01465 | 6805 ft | 200 kts | 176° |
| 2026-05-05 01:30 | 40.92540 | -112.01303 | 6583 ft | 198 kts | 176° |
| 2026-05-05 01:30 | 40.91171 | -112.01143 | 6356 ft | 195 kts | 175° |
| 2026-05-05 01:30 | 40.89948 | -112.01000 | 6120 ft | 157 kts | 175° |
| 2026-05-05 01:31 | 40.88933 | -112.00881 | 5924 ft | 142 kts | 174° |
| 2026-05-05 01:31 | 40.87954 | -112.00767 | 5728 ft | 141 kts | 174° |
| 2026-05-05 01:31 | 40.86962 | -112.00651 | 5524 ft | 144 kts | 175° |
| 2026-05-05 01:31 | 40.85954 | -112.00533 | 5310 ft | 147 kts | 175° |
| 2026-05-05 01:32 | 40.84951 | -112.00415 | 5123 ft | 146 kts | 175° |
| 2026-05-05 01:32 | 40.83930 | -112.00296 | 4909 ft | 145 kts | 173° |
| 2026-05-05 01:32 | 40.82928 | -112.00179 | 4702 ft | 145 kts | 171° |
| 2026-05-05 01:32 | 40.81925 | -112.00063 | 4509 ft | 144 kts | 171° |
| 2026-05-05 01:33 | 40.80939 | -111.99952 | 4303 ft | 144 kts | 170° |
| 2026-05-05 01:33 | 40.79958 | -111.99837 | 4237 ft | 129 kts | 174° |
| 2026-05-05 01:33 | 40.79337 | -111.99762 | 4236 ft | 57 kts | 175° |
| 2026-05-05 01:33 | 40.78977 | -111.99710 | 4239 ft | 47 kts | 168° |
| 2026-05-05 01:34 | 40.78786 | -111.99620 | 4238 ft | 13 kts | 147° |
| 2026-05-05 01:34 | 40.78716 | -111.99531 | 4237 ft | 5 kts | 130° |
| 2026-05-05 01:34 | 40.78688 | -111.99493 | 4237 ft | 7 kts | 139° |
| 2026-05-05 01:34 | 40.78651 | -111.99436 | 4237 ft | 10 kts | 108° |
| 2026-05-05 01:35 | 40.78646 | -111.99337 | 4236 ft | 12 kts | 84° |
| 2026-05-05 01:35 | 40.78654 | -111.99239 | 4237 ft | 7 kts | 84° |
| 2026-05-05 01:35 | 40.78656 | -111.99214 | 4236 ft | 0 kts | 83° |
| 2026-05-05 01:35 | 40.78657 | -111.99209 | 4236 ft | 2 kts | 83° |
| 2026-05-05 01:36 | 40.78651 | -111.99180 | 4237 ft | 5 kts | 141° |
| 2026-05-05 01:36 | 40.78610 | -111.99168 | 4236 ft | 8 kts | 176° |
| 2026-05-05 01:36 | 40.78581 | -111.99165 | 4236 ft | 2 kts | 175° |
| 2026-05-05 01:36 | 40.78580 | -111.99165 | 4236 ft | 0 kts | 175° |